Hot Springs National Park, AR

1:37 PM CDT on September 23, 2014 (GMT -0500)
Hot Springs Convention Center | Change Station
CLOSE
Current Station
Personal Weather Station
Location: Hot Springs National Park, AR
Elevation: 623 ft
Nearby Weather Stations

Elev 623 ft 34.51 °N, 93.05 °W | Updated 7 minutes ago

Clear
Clear
77.0 °F
Feels Like 78 °F
N
3.0
Wind Variable Wind from SW
Gusts 9.0 mph

Today
High -- | Low -- °F
--% Chance of Precip.
Yesterday
High -- | Low -- °F
Precip. -- in
7:00 AM 7:07 PM
Waning Crescent, 0% visible
Pressure 30.23 in
Visibility 10.0 miles
Clouds Clear
Heat Index 78 °F
Dew Point 47 °F
Humidity 35%
Rainfall 0.00 in
Snow Depth Not available.
UV 9 out of 12
Pollen 9.80 out of 12
Air Quality Not available.
Flu Activity Not available.
METAR KHOT 231753Z AUTO VRB03KT 10SM CLR 24/08 A3024 RMK AO2 SLP237 T02390083 10239 20106 58007

More Conditions Fewer Conditions

Pressure 30.23 in
Visibility 10.0 miles
Clouds Clear
Heat Index 78 °F
Dew Point 47 °F
Humidity 35%
Rainfall 0.00 in
Snow Depth Not available.
UV 9 out of 12
Pollen 9.80 out of 12
Air Quality Not available.
Flu Activity Not available.
METAR KHOT 231753Z AUTO VRB03KT 10SM CLR 24/08 A3024 RMK AO2 SLP237 T02390083 10239 20106 58007

More Conditions Fewer Conditions

10-Day Weather Forecast

Almanac

Astronomy

Sep. 23, 2014 Rise Set
Actual Time 7:00 AM CDT 7:07 PM CDT
Civil Twilight 6:35 AM CDT 7:32 PM CDT
Nautical Twilight 6:06 AM CDT 8:01 PM CDT
Astronomical Twilight 5:36 AM CDT 8:31 PM CDT
Moon 6:26 AM CDT 6:47 PM CDT
Length of Visible Light 12h 56m
Length of Day
12h 06m
Tomorrow will be 2m 9s shorter.
Waning Crescent, 0% of the Moon is Illuminated
Today
Waning Crescent
Sep 24
New
Oct 1
First Quarter
Oct 8
Full
Oct 15
Last Quarter

Today's Extremes

State Highs State Lows

Community

WunderPhotos

Upload Photos

1,755,775 photos uploaded!

Nearby

Snow Depth

Station Depth Elevation
No new snow has been reported.

Earthquake Activity

City Distance Mag. Time & Date
No recent earthquake activity has been reported nearby.
Minimum magnitude displayed is 2.5.

Coastal Water Temperatures

Place Temperature
No Stations Reporting

Nearby Weather Stations